»·PEaware :: N238RS KSNA-KCNO

N238RS :: KSNA-KCNO

FLIGHT INFORMATION

Flight Status: Arrived
Operator: Privately registered:
United States
More flights under this callsign
Pilot: Henry G. (28621)
Aircraft: CIRRUS SR-22 TURBO
(S22T)
More flights by this aircraft type
Origin: KSNA John Wayne-Orange Co
United States
Destination: KCNO Chino
United States
More flights between these airports :: More routes between these airports
Route: SLI V8 PDZ
File this flight plan on PilotEdge
Remarks:
Altitude:
(Current/Filed)
5,000ft
Speed:
(Current/Filed)
165kts
Departed: 12-Jan-21 04:28 PM
Arrived: 12-Jan-21 05:09 PM
Distance/Time
Traveled:
21nm/0:41
Distance/Time
To Go:
Arrived

Flight Plot

Page will automatically refresh every two minutes.


Map Options




Map Legend


Flown Route
Filed Route
Departure Airport
Arrival Airport
Navaid (VOR, NDB)
Fix

Horizontal Profiles

Position Reports

Time Latitude Longitude Heading Altitude Ground
Speed
12-Jan-21 16:13 33.680592 -117.861353 137 59ft 0kts
12-Jan-21 16:14 33.680592 -117.861353 137 59ft 0kts
12-Jan-21 16:15 33.680592 -117.861353 137 59ft 0kts
12-Jan-21 16:16 33.680592 -117.861353 137 59ft 0kts
12-Jan-21 16:17 33.680592 -117.861353 137 59ft 0kts
12-Jan-21 16:18 33.680592 -117.861353 137 59ft 0kts
12-Jan-21 16:19 33.680592 -117.861353 137 59ft 0kts
12-Jan-21 16:20 33.680592 -117.861353 137 59ft 0kts
12-Jan-21 16:21 33.680592 -117.861353 137 59ft 0kts
12-Jan-21 16:22 33.680577 -117.861402 276 59ft 0kts
12-Jan-21 16:23 33.680577 -117.861402 276 59ft 0kts
12-Jan-21 16:24 33.680577 -117.861405 276 59ft 0kts
12-Jan-21 16:25 33.680173 -117.862342 225 59ft 15kts
12-Jan-21 16:26 33.679963 -117.863556 270 59ft 0kts
12-Jan-21 16:27 33.678424 -117.865267 207 59ft 63kts
12-Jan-21 16:28 33.660825 -117.883737 239 912ft 121kts
12-Jan-21 16:29 33.655339 -117.897105 232 1190ft 136kts
12-Jan-21 16:30 33.650837 -117.904302 232 1641ft 123kts
12-Jan-21 16:31 33.633288 -117.931924 231 1970ft 158kts
12-Jan-21 16:32 33.633288 -117.931924 231 1970ft 158kts
12-Jan-21 16:33 33.627800 -117.940528 231 2111ft 155kts
12-Jan-21 16:34 33.632954 -117.973262 334 3515ft 151kts
12-Jan-21 16:35 33.659774 -117.984193 333 4676ft 145kts
12-Jan-21 16:36 33.688729 -117.996318 334 4969ft 175kts
12-Jan-21 16:37 33.717503 -118.008959 334 4958ft 186kts
12-Jan-21 16:38 33.722172 -118.011036 334 4958ft 186kts
12-Jan-21 16:39 33.740933 -118.019351 334 4956ft 188kts
12-Jan-21 16:40 33.771242 -118.034806 330 4955ft 188kts
12-Jan-21 16:41 33.803553 -118.037678 39 4942ft 199kts
12-Jan-21 16:42 33.819378 -117.997474 70 4957ft 199kts
12-Jan-21 16:43 33.833334 -117.954926 70 4955ft 200kts
12-Jan-21 16:44 33.848008 -117.910247 70 4956ft 201kts
12-Jan-21 16:45 33.863281 -117.863899 70 4955ft 203kts
12-Jan-21 16:46 33.878851 -117.816517 70 4960ft 196kts
12-Jan-21 16:47 33.895448 -117.765844 69 4808ft 204kts
12-Jan-21 16:48 33.912486 -117.714108 69 4810ft 203kts
12-Jan-21 16:49 33.928871 -117.664312 69 4809ft 203kts
12-Jan-21 16:50 33.940737 -117.615680 91 4811ft 200kts
12-Jan-21 16:51 33.941708 -117.566070 91 4810ft 200kts
12-Jan-21 16:52 33.942480 -117.517396 91 4809ft 200kts
12-Jan-21 16:53 33.943195 -117.465540 91 4211ft 215kts
12-Jan-21 16:54 33.948020 -117.415699 51 3717ft 217kts
12-Jan-21 16:55 33.990804 -117.403503 0 3195ft 211kts
12-Jan-21 16:56 34.035355 -117.399425 350 2799ft 203kts
12-Jan-21 16:57 34.045043 -117.431256 219 2805ft 165kts
12-Jan-21 16:58 34.010506 -117.434030 181 2810ft 165kts
12-Jan-21 16:59 33.995512 -117.462316 267 2816ft 163kts
12-Jan-21 17:00 33.997442 -117.503497 269 2811ft 164kts
12-Jan-21 17:01 33.999722 -117.546957 269 2773ft 167kts
12-Jan-21 17:02 33.988124 -117.585378 210 2616ft 172kts
12-Jan-21 17:03 33.957709 -117.616001 228 2940ft 164kts
12-Jan-21 17:04 33.937721 -117.608378 66 2790ft 153kts
12-Jan-21 17:05 33.947096 -117.584605 42 2300ft 107kts
12-Jan-21 17:06 33.966710 -117.595710 308 1954ft 99kts
12-Jan-21 17:07 33.976298 -117.620362 257 1000ft 80kts
12-Jan-21 17:08 33.976517 -117.635482 38 632ft 2kts

Navigation Log

Ident Type
Flight plan parsing failed, navigation log unavailable